sensor_id;sensor_type;location;lat;lon;timestamp;P1;durP1;ratioP1;P2;durP2;ratioP2
24261;SDS011;12385;51.412;5.540;2023-11-21T00:00:12;63.25;;;30.40;;
24261;SDS011;12385;51.412;5.540;2023-11-21T00:02:42;51.38;;;28.60;;
24261;SDS011;12385;51.412;5.540;2023-11-21T00:05:09;62.05;;;31.40;;
24261;SDS011;12385;51.412;5.540;2023-11-21T00:07:36;58.65;;;29.02;;
24261;SDS011;12385;51.412;5.540;2023-11-21T00:10:02;68.53;;;33.80;;
24261;SDS011;12385;51.412;5.540;2023-11-21T00:12:30;85.72;;;37.03;;
24261;SDS011;12385;51.412;5.540;2023-11-21T00:14:56;61.83;;;32.92;;
24261;SDS011;12385;51.412;5.540;2023-11-21T00:17:22;77.95;;;35.55;;
24261;SDS011;12385;51.412;5.540;2023-11-21T00:19:48;69.50;;;33.28;;
24261;SDS011;12385;51.412;5.540;2023-11-21T00:22:17;62.78;;;31.70;;
24261;SDS011;12385;51.412;5.540;2023-11-21T00:24:46;67.35;;;34.70;;
24261;SDS011;12385;51.412;5.540;2023-11-21T00:27:12;87.80;;;37.00;;
24261;SDS011;12385;51.412;5.540;2023-11-21T00:29:39;67.60;;;34.05;;
24261;SDS011;12385;51.412;5.540;2023-11-21T00:32:05;97.28;;;39.25;;
24261;SDS011;12385;51.412;5.540;2023-11-21T00:34:32;93.05;;;38.45;;
24261;SDS011;12385;51.412;5.540;2023-11-21T00:36:58;84.03;;;37.33;;
24261;SDS011;12385;51.412;5.540;2023-11-21T00:39:24;77.80;;;35.95;;
24261;SDS011;12385;51.412;5.540;2023-11-21T00:41:51;92.75;;;39.72;;
24261;SDS011;12385;51.412;5.540;2023-11-21T00:44:17;119.95;;;46.22;;
24261;SDS011;12385;51.412;5.540;2023-11-21T00:46:43;81.68;;;37.60;;
24261;SDS011;12385;51.412;5.540;2023-11-21T00:49:09;105.95;;;43.95;;
24261;SDS011;12385;51.412;5.540;2023-11-21T00:51:34;65.35;;;34.60;;
24261;SDS011;12385;51.412;5.540;2023-11-21T00:54:01;86.78;;;39.53;;
24261;SDS011;12385;51.412;5.540;2023-11-21T00:56:27;86.60;;;40.33;;
24261;SDS011;12385;51.412;5.540;2023-11-21T00:58:53;82.45;;;37.60;;
24261;SDS011;12385;51.412;5.540;2023-11-21T01:01:20;84.40;;;37.97;;
24261;SDS011;12385;51.412;5.540;2023-11-21T01:03:51;93.53;;;41.30;;
24261;SDS011;12385;51.412;5.540;2023-11-21T01:06:17;82.55;;;36.90;;
24261;SDS011;12385;51.412;5.540;2023-11-21T01:08:43;100.72;;;44.08;;
24261;SDS011;12385;51.412;5.540;2023-11-21T01:11:09;97.32;;;43.80;;
24261;SDS011;12385;51.412;5.540;2023-11-21T01:13:38;85.78;;;39.40;;
24261;SDS011;12385;51.412;5.540;2023-11-21T01:16:04;119.10;;;46.50;;
24261;SDS011;12385;51.412;5.540;2023-11-21T01:18:31;105.40;;;41.67;;
24261;SDS011;12385;51.412;5.540;2023-11-21T01:20:57;84.40;;;39.67;;
24261;SDS011;12385;51.412;5.540;2023-11-21T01:23:23;77.28;;;37.70;;
24261;SDS011;12385;51.412;5.540;2023-11-21T01:25:48;111.68;;;45.95;;
24261;SDS011;12385;51.412;5.540;2023-11-21T01:28:17;70.57;;;36.03;;
24261;SDS011;12385;51.412;5.540;2023-11-21T01:30:43;85.13;;;40.67;;
24261;SDS011;12385;51.412;5.540;2023-11-21T01:33:09;80.68;;;35.30;;
24261;SDS011;12385;51.412;5.540;2023-11-21T01:35:35;92.70;;;41.53;;
24261;SDS011;12385;51.412;5.540;2023-11-21T01:38:01;87.35;;;42.15;;
24261;SDS011;12385;51.412;5.540;2023-11-21T01:40:26;123.22;;;47.58;;
24261;SDS011;12385;51.412;5.540;2023-11-21T01:42:53;91.78;;;42.38;;
24261;SDS011;12385;51.412;5.540;2023-11-21T01:45:20;119.40;;;49.42;;
24261;SDS011;12385;51.412;5.540;2023-11-21T01:47:46;94.88;;;40.55;;
24261;SDS011;12385;51.412;5.540;2023-11-21T01:50:16;83.68;;;40.55;;
24261;SDS011;12385;51.412;5.540;2023-11-21T01:52:47;117.50;;;49.67;;
24261;SDS011;12385;51.412;5.540;2023-11-21T01:55:14;121.28;;;50.80;;
24261;SDS011;12385;51.412;5.540;2023-11-21T01:57:46;87.43;;;42.88;;
24261;SDS011;12385;51.412;5.540;2023-11-21T02:00:13;120.35;;;50.05;;
24261;SDS011;12385;51.412;5.540;2023-11-21T02:02:45;74.37;;;38.23;;
24261;SDS011;12385;51.412;5.540;2023-11-21T02:05:12;106.55;;;45.95;;
24261;SDS011;12385;51.412;5.540;2023-11-21T02:07:39;93.15;;;43.60;;
24261;SDS011;12385;51.412;5.540;2023-11-21T02:10:07;95.53;;;44.50;;
24261;SDS011;12385;51.412;5.540;2023-11-21T02:12:34;92.55;;;43.58;;
24261;SDS011;12385;51.412;5.540;2023-11-21T02:15:00;92.10;;;44.47;;
24261;SDS011;12385;51.412;5.540;2023-11-21T02:17:30;80.13;;;41.38;;
24261;SDS011;12385;51.412;5.540;2023-11-21T02:19:57;114.25;;;48.95;;
24261;SDS011;12385;51.412;5.540;2023-11-21T02:22:24;135.48;;;45.80;;
24261;SDS011;12385;51.412;5.540;2023-11-21T02:24:55;266.45;;;58.78;;
24261;SDS011;12385;51.412;5.540;2023-11-21T02:27:22;246.55;;;53.85;;
24261;SDS011;12385;51.412;5.540;2023-11-21T02:29:49;392.38;;;77.47;;
24261;SDS011;12385;51.412;5.540;2023-11-21T02:32:17;467.27;;;87.95;;
24261;SDS011;12385;51.412;5.540;2023-11-21T02:34:44;302.52;;;60.92;;
24261;SDS011;12385;51.412;5.540;2023-11-21T02:37:10;352.70;;;69.15;;
24261;SDS011;12385;51.412;5.540;2023-11-21T02:39:35;252.07;;;60.72;;
24261;SDS011;12385;51.412;5.540;2023-11-21T02:42:01;306.90;;;71.05;;
24261;SDS011;12385;51.412;5.540;2023-11-21T02:44:26;291.40;;;67.18;;
24261;SDS011;12385;51.412;5.540;2023-11-21T02:46:52;609.92;;;98.55;;
24261;SDS011;12385;51.412;5.540;2023-11-21T02:49:18;771.47;;;109.40;;
24261;SDS011;12385;51.412;5.540;2023-11-21T02:51:44;849.00;;;118.22;;
24261;SDS011;12385;51.412;5.540;2023-11-21T02:54:09;974.92;;;112.65;;
24261;SDS011;12385;51.412;5.540;2023-11-21T02:56:35;930.65;;;111.47;;
24261;SDS011;12385;51.412;5.540;2023-11-21T02:59:00;818.30;;;103.15;;
24261;SDS011;12385;51.412;5.540;2023-11-21T03:01:26;662.63;;;83.72;;
24261;SDS011;12385;51.412;5.540;2023-11-21T03:03:52;1038.22;;;112.65;;
24261;SDS011;12385;51.412;5.540;2023-11-21T03:06:21;597.15;;;76.85;;
24261;SDS011;12385;51.412;5.540;2023-11-21T03:08:47;766.47;;;106.75;;
24261;SDS011;12385;51.412;5.540;2023-11-21T03:11:13;647.08;;;87.90;;
24261;SDS011;12385;51.412;5.540;2023-11-21T03:13:40;858.63;;;98.65;;
24261;SDS011;12385;51.412;5.540;2023-11-21T03:16:09;637.25;;;83.07;;
24261;SDS011;12385;51.412;5.540;2023-11-21T03:18:35;796.88;;;102.75;;
24261;SDS011;12385;51.412;5.540;2023-11-21T03:21:02;925.08;;;105.07;;
24261;SDS011;12385;51.412;5.540;2023-11-21T03:23:28;636.47;;;90.95;;
24261;SDS011;12385;51.412;5.540;2023-11-21T03:25:54;771.50;;;111.65;;
24261;SDS011;12385;51.412;5.540;2023-11-21T03:28:22;551.60;;;90.72;;
24261;SDS011;12385;51.412;5.540;2023-11-21T03:30:48;520.40;;;86.40;;
24261;SDS011;12385;51.412;5.540;2023-11-21T03:33:16;354.85;;;63.22;;
24261;SDS011;12385;51.412;5.540;2023-11-21T03:35:42;542.08;;;93.22;;
24261;SDS011;12385;51.412;5.540;2023-11-21T03:38:09;465.48;;;78.65;;
24261;SDS011;12385;51.412;5.540;2023-11-21T03:40:35;562.67;;;90.25;;
24261;SDS011;12385;51.412;5.540;2023-11-21T03:43:00;545.05;;;88.18;;
24261;SDS011;12385;51.412;5.540;2023-11-21T03:45:26;440.55;;;67.95;;
24261;SDS011;12385;51.412;5.540;2023-11-21T03:47:52;735.05;;;92.97;;
24261;SDS011;12385;51.412;5.540;2023-11-21T03:50:18;780.33;;;98.50;;
24261;SDS011;12385;51.412;5.540;2023-11-21T03:52:44;648.05;;;85.90;;
24261;SDS011;12385;51.412;5.540;2023-11-21T03:55:10;685.80;;;91.68;;
24261;SDS011;12385;51.412;5.540;2023-11-21T03:57:36;468.20;;;72.38;;
24261;SDS011;12385;51.412;5.540;2023-11-21T04:00:02;761.17;;;104.15;;
24261;SDS011;12385;51.412;5.540;2023-11-21T04:02:30;582.70;;;85.00;;
24261;SDS011;12385;51.412;5.540;2023-11-21T04:04:56;604.33;;;86.60;;
24261;SDS011;12385;51.412;5.540;2023-11-21T04:07:22;747.22;;;88.32;;
24261;SDS011;12385;51.412;5.540;2023-11-21T04:09:48;586.28;;;81.22;;
24261;SDS011;12385;51.412;5.540;2023-11-21T04:12:13;381.45;;;67.15;;
24261;SDS011;12385;51.412;5.540;2023-11-21T04:14:39;704.97;;;97.45;;
24261;SDS011;12385;51.412;5.540;2023-11-21T04:17:04;695.13;;;89.50;;
24261;SDS011;12385;51.412;5.540;2023-11-21T04:19:31;553.22;;;61.15;;
24261;SDS011;12385;51.412;5.540;2023-11-21T04:21:56;375.52;;;56.95;;
24261;SDS011;12385;51.412;5.540;2023-11-21T04:24:22;689.53;;;74.95;;
24261;SDS011;12385;51.412;5.540;2023-11-21T04:26:48;696.78;;;76.45;;
24261;SDS011;12385;51.412;5.540;2023-11-21T04:29:13;497.90;;;64.47;;
24261;SDS011;12385;51.412;5.540;2023-11-21T04:31:39;856.60;;;98.60;;
24261;SDS011;12385;51.412;5.540;2023-11-21T04:34:05;316.70;;;59.95;;
24261;SDS011;12385;51.412;5.540;2023-11-21T04:36:30;745.35;;;79.63;;
24261;SDS011;12385;51.412;5.540;2023-11-21T04:38:56;547.78;;;59.38;;
24261;SDS011;12385;51.412;5.540;2023-11-21T04:41:22;881.83;;;89.25;;
24261;SDS011;12385;51.412;5.540;2023-11-21T04:43:48;425.75;;;56.35;;
24261;SDS011;12385;51.412;5.540;2023-11-21T04:46:14;771.60;;;65.15;;
24261;SDS011;12385;51.412;5.540;2023-11-21T04:48:40;694.53;;;79.15;;
24261;SDS011;12385;51.412;5.540;2023-11-21T04:51:06;408.85;;;60.10;;
24261;SDS011;12385;51.412;5.540;2023-11-21T04:53:31;588.10;;;66.38;;
24261;SDS011;12385;51.412;5.540;2023-11-21T04:55:57;366.33;;;56.00;;
24261;SDS011;12385;51.412;5.540;2023-11-21T04:58:23;470.73;;;61.80;;
24261;SDS011;12385;51.412;5.540;2023-11-21T05:00:48;634.08;;;83.18;;
24261;SDS011;12385;51.412;5.540;2023-11-21T05:03:15;465.35;;;66.28;;
24261;SDS011;12385;51.412;5.540;2023-11-21T05:05:41;704.15;;;79.45;;
24261;SDS011;12385;51.412;5.540;2023-11-21T05:08:06;545.45;;;65.75;;
24261;SDS011;12385;51.412;5.540;2023-11-21T05:10:33;623.65;;;79.55;;
24261;SDS011;12385;51.412;5.540;2023-11-21T05:12:59;626.35;;;78.03;;
24261;SDS011;12385;51.412;5.540;2023-11-21T05:15:25;592.63;;;72.65;;
24261;SDS011;12385;51.412;5.540;2023-11-21T05:17:52;368.48;;;50.47;;
24261;SDS011;12385;51.412;5.540;2023-11-21T05:20:19;480.17;;;65.97;;
24261;SDS011;12385;51.412;5.540;2023-11-21T05:22:48;626.00;;;84.30;;
24261;SDS011;12385;51.412;5.540;2023-11-21T05:25:14;518.60;;;71.10;;
24261;SDS011;12385;51.412;5.540;2023-11-21T05:30:10;319.25;;;56.63;;
24261;SDS011;12385;51.412;5.540;2023-11-21T05:32:37;279.27;;;56.13;;
24261;SDS011;12385;51.412;5.540;2023-11-21T05:35:02;186.07;;;53.85;;
24261;SDS011;12385;51.412;5.540;2023-11-21T05:37:28;408.98;;;72.35;;
24261;SDS011;12385;51.412;5.540;2023-11-21T05:39:54;368.20;;;71.75;;
24261;SDS011;12385;51.412;5.540;2023-11-21T05:42:24;233.27;;;56.22;;
24261;SDS011;12385;51.412;5.540;2023-11-21T05:44:52;426.92;;;76.32;;
24261;SDS011;12385;51.412;5.540;2023-11-21T05:47:18;233.10;;;56.70;;
24261;SDS011;12385;51.412;5.540;2023-11-21T05:49:44;237.52;;;50.38;;
24261;SDS011;12385;51.412;5.540;2023-11-21T05:52:10;481.55;;;76.93;;
24261;SDS011;12385;51.412;5.540;2023-11-21T05:54:36;557.97;;;83.65;;
24261;SDS011;12385;51.412;5.540;2023-11-21T05:57:01;266.50;;;62.78;;
24261;SDS011;12385;51.412;5.540;2023-11-21T05:59:27;229.75;;;58.58;;
24261;SDS011;12385;51.412;5.540;2023-11-21T06:01:53;239.38;;;59.70;;
24261;SDS011;12385;51.412;5.540;2023-11-21T06:04:18;258.95;;;63.38;;
24261;SDS011;12385;51.412;5.540;2023-11-21T06:06:47;233.68;;;64.60;;
24261;SDS011;12385;51.412;5.540;2023-11-21T06:09:12;156.60;;;51.17;;
24261;SDS011;12385;51.412;5.540;2023-11-21T06:11:38;183.80;;;60.58;;
24261;SDS011;12385;51.412;5.540;2023-11-21T06:14:04;130.80;;;51.80;;
24261;SDS011;12385;51.412;5.540;2023-11-21T06:16:33;147.50;;;55.25;;
24261;SDS011;12385;51.412;5.540;2023-11-21T06:18:58;207.05;;;63.65;;
24261;SDS011;12385;51.412;5.540;2023-11-21T06:21:24;107.50;;;48.00;;
24261;SDS011;12385;51.412;5.540;2023-11-21T06:23:52;178.88;;;61.30;;
24261;SDS011;12385;51.412;5.540;2023-11-21T06:26:18;117.40;;;49.78;;
24261;SDS011;12385;51.412;5.540;2023-11-21T06:28:44;156.50;;;55.97;;
24261;SDS011;12385;51.412;5.540;2023-11-21T06:31:10;141.98;;;54.95;;
24261;SDS011;12385;51.412;5.540;2023-11-21T06:33:35;166.50;;;60.10;;
24261;SDS011;12385;51.412;5.540;2023-11-21T06:36:01;169.65;;;58.25;;
24261;SDS011;12385;51.412;5.540;2023-11-21T06:38:31;148.30;;;53.20;;
24261;SDS011;12385;51.412;5.540;2023-11-21T06:40:57;156.45;;;53.33;;
24261;SDS011;12385;51.412;5.540;2023-11-21T06:43:23;234.18;;;64.32;;
24261;SDS011;12385;51.412;5.540;2023-11-21T06:45:49;277.38;;;69.15;;
24261;SDS011;12385;51.412;5.540;2023-11-21T06:48:16;269.65;;;66.68;;
24261;SDS011;12385;51.412;5.540;2023-11-21T06:50:41;295.30;;;70.30;;
24261;SDS011;12385;51.412;5.540;2023-11-21T06:53:07;244.35;;;65.30;;
24261;SDS011;12385;51.412;5.540;2023-11-21T06:55:34;325.27;;;72.93;;
24261;SDS011;12385;51.412;5.540;2023-11-21T06:58:00;261.75;;;68.10;;
24261;SDS011;12385;51.412;5.540;2023-11-21T07:00:26;354.83;;;76.85;;
24261;SDS011;12385;51.412;5.540;2023-11-21T07:02:55;368.65;;;79.78;;
24261;SDS011;12385;51.412;5.540;2023-11-21T07:05:21;332.08;;;70.38;;
24261;SDS011;12385;51.412;5.540;2023-11-21T07:07:47;337.08;;;75.15;;
24261;SDS011;12385;51.412;5.540;2023-11-21T07:10:19;343.63;;;69.93;;
24261;SDS011;12385;51.412;5.540;2023-11-21T07:12:47;315.03;;;66.57;;
24261;SDS011;12385;51.412;5.540;2023-11-21T07:15:13;471.92;;;84.72;;
24261;SDS011;12385;51.412;5.540;2023-11-21T07:17:39;262.98;;;59.72;;
24261;SDS011;12385;51.412;5.540;2023-11-21T07:20:05;307.70;;;68.72;;
24261;SDS011;12385;51.412;5.540;2023-11-21T07:22:31;443.10;;;77.72;;
24261;SDS011;12385;51.412;5.540;2023-11-21T07:24:57;430.30;;;72.60;;
24261;SDS011;12385;51.412;5.540;2023-11-21T07:27:23;449.08;;;78.90;;
24261;SDS011;12385;51.412;5.540;2023-11-21T07:29:49;465.50;;;83.72;;
24261;SDS011;12385;51.412;5.540;2023-11-21T07:32:16;558.22;;;88.05;;
24261;SDS011;12385;51.412;5.540;2023-11-21T07:34:42;395.23;;;76.65;;
24261;SDS011;12385;51.412;5.540;2023-11-21T07:37:08;460.10;;;82.07;;
24261;SDS011;12385;51.412;5.540;2023-11-21T07:39:36;344.63;;;62.83;;
24261;SDS011;12385;51.412;5.540;2023-11-21T07:42:02;291.30;;;64.68;;
24261;SDS011;12385;51.412;5.540;2023-11-21T07:44:29;345.90;;;72.15;;
24261;SDS011;12385;51.412;5.540;2023-11-21T07:46:55;445.45;;;77.75;;
24261;SDS011;12385;51.412;5.540;2023-11-21T07:49:23;429.55;;;72.68;;
24261;SDS011;12385;51.412;5.540;2023-11-21T07:51:51;423.75;;;76.65;;
24261;SDS011;12385;51.412;5.540;2023-11-21T07:54:17;453.73;;;78.47;;
24261;SDS011;12385;51.412;5.540;2023-11-21T07:56:43;412.80;;;78.32;;
24261;SDS011;12385;51.412;5.540;2023-11-21T07:59:09;500.10;;;89.28;;
24261;SDS011;12385;51.412;5.540;2023-11-21T08:01:34;417.00;;;79.38;;
24261;SDS011;12385;51.412;5.540;2023-11-21T08:04:00;387.85;;;78.70;;
24261;SDS011;12385;51.412;5.540;2023-11-21T08:06:32;317.83;;;72.78;;
24261;SDS011;12385;51.412;5.540;2023-11-21T08:08:58;306.87;;;70.53;;
24261;SDS011;12385;51.412;5.540;2023-11-21T08:11:24;303.65;;;72.15;;
24261;SDS011;12385;51.412;5.540;2023-11-21T08:13:51;332.85;;;77.63;;
24261;SDS011;12385;51.412;5.540;2023-11-21T08:16:18;316.85;;;76.78;;
24261;SDS011;12385;51.412;5.540;2023-11-21T08:18:43;260.52;;;71.00;;
24261;SDS011;12385;51.412;5.540;2023-11-21T08:21:09;286.27;;;71.22;;
24261;SDS011;12385;51.412;5.540;2023-11-21T08:23:37;318.83;;;75.90;;
24261;SDS011;12385;51.412;5.540;2023-11-21T08:26:04;293.67;;;71.65;;
24261;SDS011;12385;51.412;5.540;2023-11-21T08:28:30;302.77;;;73.53;;
24261;SDS011;12385;51.412;5.540;2023-11-21T08:30:55;286.35;;;72.28;;
24261;SDS011;12385;51.412;5.540;2023-11-21T08:33:21;308.00;;;74.43;;
24261;SDS011;12385;51.412;5.540;2023-11-21T08:35:47;256.70;;;65.75;;
24261;SDS011;12385;51.412;5.540;2023-11-21T08:38:13;285.88;;;73.63;;
24261;SDS011;12385;51.412;5.540;2023-11-21T08:40:38;210.80;;;62.63;;
24261;SDS011;12385;51.412;5.540;2023-11-21T08:43:04;232.25;;;66.22;;
24261;SDS011;12385;51.412;5.540;2023-11-21T08:45:30;265.63;;;70.28;;
24261;SDS011;12385;51.412;5.540;2023-11-21T08:47:57;333.20;;;76.97;;
24261;SDS011;12385;51.412;5.540;2023-11-21T08:50:22;267.40;;;71.75;;
24261;SDS011;12385;51.412;5.540;2023-11-21T08:52:48;308.08;;;75.95;;
24261;SDS011;12385;51.412;5.540;2023-11-21T08:55:14;196.57;;;62.67;;
24261;SDS011;12385;51.412;5.540;2023-11-21T08:57:40;251.00;;;69.47;;
24261;SDS011;12385;51.412;5.540;2023-11-21T09:00:08;295.95;;;74.03;;
24261;SDS011;12385;51.412;5.540;2023-11-21T09:02:36;297.60;;;74.28;;
24261;SDS011;12385;51.412;5.540;2023-11-21T09:05:03;243.05;;;70.88;;
24261;SDS011;12385;51.412;5.540;2023-11-21T09:07:32;232.70;;;68.68;;
24261;SDS011;12385;51.412;5.540;2023-11-21T09:09:58;221.38;;;66.57;;
24261;SDS011;12385;51.412;5.540;2023-11-21T09:12:24;242.25;;;68.30;;
24261;SDS011;12385;51.412;5.540;2023-11-21T09:14:51;283.88;;;75.07;;
24261;SDS011;12385;51.412;5.540;2023-11-21T09:17:17;240.05;;;70.82;;
24261;SDS011;12385;51.412;5.540;2023-11-21T09:19:43;232.85;;;66.53;;
24261;SDS011;12385;51.412;5.540;2023-11-21T09:22:12;267.63;;;68.90;;
24261;SDS011;12385;51.412;5.540;2023-11-21T09:24:37;239.60;;;67.05;;
24261;SDS011;12385;51.412;5.540;2023-11-21T09:27:03;252.05;;;66.65;;
24261;SDS011;12385;51.412;5.540;2023-11-21T09:29:30;259.27;;;69.88;;
24261;SDS011;12385;51.412;5.540;2023-11-21T09:31:56;212.18;;;63.33;;
24261;SDS011;12385;51.412;5.540;2023-11-21T09:34:24;261.08;;;69.20;;
24261;SDS011;12385;51.412;5.540;2023-11-21T09:36:51;264.67;;;69.00;;
24261;SDS011;12385;51.412;5.540;2023-11-21T09:39:17;259.85;;;70.13;;
24261;SDS011;12385;51.412;5.540;2023-11-21T09:41:44;239.95;;;66.40;;
24261;SDS011;12385;51.412;5.540;2023-11-21T09:44:27;225.35;;;63.28;;
24261;SDS011;12385;51.412;5.540;2023-11-21T09:46:58;190.55;;;60.63;;
24261;SDS011;12385;51.412;5.540;2023-11-21T09:49:25;234.20;;;65.50;;
24261;SDS011;12385;51.412;5.540;2023-11-21T09:51:53;187.43;;;59.08;;
24261;SDS011;12385;51.412;5.540;2023-11-21T09:54:21;243.63;;;66.82;;
24261;SDS011;12385;51.412;5.540;2023-11-21T09:56:47;262.40;;;68.15;;
24261;SDS011;12385;51.412;5.540;2023-11-21T09:59:17;239.38;;;67.63;;
24261;SDS011;12385;51.412;5.540;2023-11-21T10:01:43;215.15;;;63.38;;
24261;SDS011;12385;51.412;5.540;2023-11-21T10:04:11;280.67;;;69.63;;
24261;SDS011;12385;51.412;5.540;2023-11-21T10:06:40;290.00;;;72.03;;
24261;SDS011;12385;51.412;5.540;2023-11-21T10:09:07;275.00;;;72.65;;
24261;SDS011;12385;51.412;5.540;2023-11-21T10:14:06;280.15;;;70.57;;
24261;SDS011;12385;51.412;5.540;2023-11-21T10:16:35;331.73;;;76.00;;
24261;SDS011;12385;51.412;5.540;2023-11-21T10:19:03;284.95;;;75.18;;
24261;SDS011;12385;51.412;5.540;2023-11-21T10:21:31;263.13;;;74.93;;
24261;SDS011;12385;51.412;5.540;2023-11-21T10:23:58;253.90;;;74.95;;
24261;SDS011;12385;51.412;5.540;2023-11-21T10:26:24;256.27;;;75.10;;
24261;SDS011;12385;51.412;5.540;2023-11-21T10:28:58;241.38;;;71.95;;
24261;SDS011;12385;51.412;5.540;2023-11-21T10:31:27;238.80;;;71.38;;
24261;SDS011;12385;51.412;5.540;2023-11-21T10:33:55;241.52;;;73.35;;
24261;SDS011;12385;51.412;5.540;2023-11-21T10:36:41;231.35;;;70.18;;
24261;SDS011;12385;51.412;5.540;2023-11-21T10:39:07;261.92;;;73.40;;
24261;SDS011;12385;51.412;5.540;2023-11-21T10:41:33;237.40;;;71.43;;
24261;SDS011;12385;51.412;5.540;2023-11-21T10:44:00;215.50;;;67.93;;
24261;SDS011;12385;51.412;5.540;2023-11-21T10:46:29;221.38;;;70.05;;
24261;SDS011;12385;51.412;5.540;2023-11-21T10:48:55;189.48;;;65.55;;
24261;SDS011;12385;51.412;5.540;2023-11-21T10:51:22;257.27;;;71.70;;
24261;SDS011;12385;51.412;5.540;2023-11-21T10:53:52;172.75;;;58.47;;
24261;SDS011;12385;51.412;5.540;2023-11-21T10:56:18;225.82;;;67.03;;
24261;SDS011;12385;51.412;5.540;2023-11-21T10:58:52;237.35;;;69.30;;
24261;SDS011;12385;51.412;5.540;2023-11-21T11:01:19;210.48;;;65.35;;
24261;SDS011;12385;51.412;5.540;2023-11-21T11:03:52;186.23;;;59.97;;
24261;SDS011;12385;51.412;5.540;2023-11-21T11:06:19;196.73;;;62.13;;
24261;SDS011;12385;51.412;5.540;2023-11-21T11:08:52;191.77;;;58.60;;
24261;SDS011;12385;51.412;5.540;2023-11-21T11:11:18;178.88;;;57.67;;
24261;SDS011;12385;51.412;5.540;2023-11-21T11:13:44;148.75;;;53.50;;
24261;SDS011;12385;51.412;5.540;2023-11-21T11:16:10;136.23;;;50.45;;
24261;SDS011;12385;51.412;5.540;2023-11-21T11:18:42;137.02;;;49.40;;
24261;SDS011;12385;51.412;5.540;2023-11-21T11:21:12;126.80;;;47.80;;
24261;SDS011;12385;51.412;5.540;2023-11-21T11:26:45;126.45;;;46.22;;
24261;SDS011;12385;51.412;5.540;2023-11-21T11:29:31;98.70;;;40.58;;
24261;SDS011;12385;51.412;5.540;2023-11-21T11:35:03;113.05;;;44.83;;
24261;SDS011;12385;51.412;5.540;2023-11-21T11:37:33;132.80;;;47.15;;
24261;SDS011;12385;51.412;5.540;2023-11-21T11:39:59;117.05;;;44.65;;
24261;SDS011;12385;51.412;5.540;2023-11-21T11:42:25;138.70;;;49.00;;
24261;SDS011;12385;51.412;5.540;2023-11-21T11:44:52;125.80;;;47.17;;
24261;SDS011;12385;51.412;5.540;2023-11-21T11:49:59;168.90;;;51.95;;
24261;SDS011;12385;51.412;5.540;2023-11-21T11:55:08;161.68;;;49.80;;
24261;SDS011;12385;51.412;5.540;2023-11-21T11:57:39;141.93;;;49.25;;
24261;SDS011;12385;51.412;5.540;2023-11-21T12:00:13;128.45;;;47.15;;
24261;SDS011;12385;51.412;5.540;2023-11-21T12:02:41;126.43;;;46.28;;
24261;SDS011;12385;51.412;5.540;2023-11-21T12:05:13;124.03;;;46.60;;
24261;SDS011;12385;51.412;5.540;2023-11-21T12:07:53;108.03;;;44.47;;
24261;SDS011;12385;51.412;5.540;2023-11-21T12:10:33;126.35;;;47.22;;
24261;SDS011;12385;51.412;5.540;2023-11-21T12:13:00;120.10;;;46.33;;
24261;SDS011;12385;51.412;5.540;2023-11-21T12:15:27;104.70;;;43.40;;
24261;SDS011;12385;51.412;5.540;2023-11-21T12:17:56;97.75;;;40.47;;
24261;SDS011;12385;51.412;5.540;2023-11-21T12:20:24;104.47;;;42.28;;
24261;SDS011;12385;51.412;5.540;2023-11-21T12:22:53;100.40;;;41.67;;
24261;SDS011;12385;51.412;5.540;2023-11-21T12:25:20;98.53;;;40.63;;
24261;SDS011;12385;51.412;5.540;2023-11-21T12:27:49;97.45;;;40.45;;
24261;SDS011;12385;51.412;5.540;2023-11-21T12:30:18;80.80;;;36.63;;
24261;SDS011;12385;51.412;5.540;2023-11-21T12:32:49;75.32;;;36.70;;
24261;SDS011;12385;51.412;5.540;2023-11-21T12:35:17;89.00;;;37.90;;
24261;SDS011;12385;51.412;5.540;2023-11-21T12:37:49;73.75;;;35.22;;
24261;SDS011;12385;51.412;5.540;2023-11-21T12:40:17;85.38;;;35.17;;
24261;SDS011;12385;51.412;5.540;2023-11-21T12:42:47;72.80;;;34.80;;
24261;SDS011;12385;51.412;5.540;2023-11-21T12:48:01;82.93;;;37.53;;
24261;SDS011;12385;51.412;5.540;2023-11-21T12:50:36;81.80;;;36.58;;
24261;SDS011;12385;51.412;5.540;2023-11-21T12:53:04;85.68;;;36.88;;
24261;SDS011;12385;51.412;5.540;2023-11-21T12:55:35;93.90;;;39.30;;
24261;SDS011;12385;51.412;5.540;2023-11-21T12:58:08;71.03;;;33.33;;
24261;SDS011;12385;51.412;5.540;2023-11-21T13:00:38;70.53;;;33.97;;
24261;SDS011;12385;51.412;5.540;2023-11-21T13:03:09;75.32;;;34.83;;
24261;SDS011;12385;51.412;5.540;2023-11-21T13:05:38;77.43;;;37.08;;
24261;SDS011;12385;51.412;5.540;2023-11-21T13:08:08;85.20;;;41.95;;
24261;SDS011;12385;51.412;5.540;2023-11-21T13:10:37;91.00;;;41.45;;
24261;SDS011;12385;51.412;5.540;2023-11-21T13:13:09;90.70;;;40.35;;
24261;SDS011;12385;51.412;5.540;2023-11-21T13:15:47;85.57;;;40.03;;
24261;SDS011;12385;51.412;5.540;2023-11-21T13:18:19;93.97;;;42.50;;
24261;SDS011;12385;51.412;5.540;2023-11-21T13:20:47;81.65;;;41.17;;
24261;SDS011;12385;51.412;5.540;2023-11-21T13:23:13;89.10;;;40.95;;
24261;SDS011;12385;51.412;5.540;2023-11-21T13:25:41;91.22;;;41.85;;
24261;SDS011;12385;51.412;5.540;2023-11-21T13:28:08;96.93;;;40.53;;
24261;SDS011;12385;51.412;5.540;2023-11-21T13:30:36;90.53;;;41.80;;
24261;SDS011;12385;51.412;5.540;2023-11-21T13:33:04;92.00;;;41.25;;
24261;SDS011;12385;51.412;5.540;2023-11-21T13:35:32;82.32;;;39.03;;
24261;SDS011;12385;51.412;5.540;2023-11-21T13:38:13;99.93;;;42.05;;
24261;SDS011;12385;51.412;5.540;2023-11-21T13:40:41;101.45;;;41.72;;
24261;SDS011;12385;51.412;5.540;2023-11-21T13:43:14;108.53;;;46.17;;
24261;SDS011;12385;51.412;5.540;2023-11-21T13:45:44;89.28;;;41.67;;
24261;SDS011;12385;51.412;5.540;2023-11-21T13:48:11;89.15;;;40.33;;
24261;SDS011;12385;51.412;5.540;2023-11-21T13:50:45;76.05;;;36.95;;
24261;SDS011;12385;51.412;5.540;2023-11-21T13:53:23;86.50;;;39.78;;
24261;SDS011;12385;51.412;5.540;2023-11-21T13:55:52;71.28;;;36.72;;
24261;SDS011;12385;51.412;5.540;2023-11-21T13:58:25;78.00;;;37.60;;
24261;SDS011;12385;51.412;5.540;2023-11-21T14:01:09;76.20;;;38.42;;
24261;SDS011;12385;51.412;5.540;2023-11-21T14:03:57;79.97;;;37.92;;
24261;SDS011;12385;51.412;5.540;2023-11-21T14:06:33;81.28;;;38.03;;
24261;SDS011;12385;51.412;5.540;2023-11-21T14:09:05;85.95;;;38.53;;
24261;SDS011;12385;51.412;5.540;2023-11-21T14:11:31;87.32;;;40.00;;
24261;SDS011;12385;51.412;5.540;2023-11-21T14:13:59;84.18;;;40.08;;
24261;SDS011;12385;51.412;5.540;2023-11-21T14:16:25;92.47;;;41.10;;
24261;SDS011;12385;51.412;5.540;2023-11-21T14:18:52;92.35;;;41.80;;
24261;SDS011;12385;51.412;5.540;2023-11-21T14:21:22;90.45;;;40.40;;
24261;SDS011;12385;51.412;5.540;2023-11-21T14:23:48;101.18;;;43.25;;
24261;SDS011;12385;51.412;5.540;2023-11-21T14:26:14;111.30;;;45.28;;
24261;SDS011;12385;51.412;5.540;2023-11-21T14:28:41;96.20;;;43.55;;
24261;SDS011;12385;51.412;5.540;2023-11-21T14:31:07;105.75;;;45.40;;